Time;durP1;ratioP1;P1;durP2;ratioP2;P2;SDS_P1;SDS_P2;PMS_P1;PMS_P2;Temp;Humidity;BMP_temperature;BMP_pressure;BME280_temperature;BME280_humidity;BME280_pressure;Samples;Min_cycle;Max_cycle;Signal;HPM_P1;HPM_P2
2021/07/21 00:00:32;;;;;;;24.08;16.02;;;19.20;99.90;;;;;;5058836;28;20619;-83
2021/07/21 00:02:59;;;;;;;28.05;15.52;;;19.20;99.90;;;;;;5050357;28;20195;-83
2021/07/21 00:05:26;;;;;;;23.58;15.93;;;19.20;99.90;;;;;;5058125;28;20221;-83
2021/07/21 00:07:53;;;;;;;24.00;15.98;;;19.30;99.90;;;;;;5075943;28;20236;-83
2021/07/21 00:10:22;;;;;;;23.30;14.77;;;19.20;99.90;;;;;;5094756;28;20216;-83
2021/07/21 00:15:36;;;;;;;19.65;15.20;;;19.10;99.90;;;;;;5074860;28;20177;-82
2021/07/21 00:18:16;;;;;;;18.38;15.25;;;19.20;99.90;;;;;;5074662;28;20223;-83
2021/07/21 00:20:44;;;;;;;21.60;15.52;;;19.10;99.90;;;;;;5093200;28;20192;-83
2021/07/21 00:23:10;;;;;;;19.88;14.80;;;19.10;99.90;;;;;;5086917;28;20367;-83
2021/07/21 00:25:35;;;;;;;23.27;14.43;;;19.20;99.90;;;;;;5067242;28;20616;-83
2021/07/21 00:28:01;;;;;;;22.52;15.20;;;19.20;99.90;;;;;;5061907;28;20182;-83
2021/07/21 00:30:27;;;;;;;18.73;14.23;;;19.30;99.90;;;;;;5056365;28;20209;-83
2021/07/21 00:32:54;;;;;;;23.88;15.88;;;19.30;99.90;;;;;;5056993;28;20174;-82
2021/07/21 00:35:21;;;;;;;20.15;14.95;;;19.30;99.90;;;;;;5058771;28;20519;-83
2021/07/21 00:37:46;;;;;;;23.00;14.43;;;19.30;99.90;;;;;;5053634;28;20170;-83
2021/07/21 00:40:16;;;;;;;18.88;13.63;;;19.20;99.90;;;;;;5072876;28;20196;-83
2021/07/21 00:42:42;;;;;;;22.80;14.88;;;19.10;99.90;;;;;;5076882;28;20519;-83
2021/07/21 00:45:08;;;;;;;20.33;14.35;;;19.00;99.90;;;;;;5075837;28;20179;-83
2021/07/21 00:47:34;;;;;;;19.27;14.77;;;19.00;99.90;;;;;;5040090;28;20177;-82
2021/07/21 00:50:00;;;;;;;20.27;14.38;;;19.00;99.90;;;;;;5077230;28;20233;-82
2021/07/21 00:52:26;;;;;;;17.13;14.02;;;18.90;99.90;;;;;;5074896;28;20251;-82
2021/07/21 00:54:52;;;;;;;22.20;14.57;;;19.00;99.90;;;;;;5082975;28;20174;-82
2021/07/21 00:57:18;;;;;;;19.73;13.70;;;19.00;99.90;;;;;;5094783;28;20166;-83
2021/07/21 00:59:44;;;;;;;18.45;14.23;;;19.10;99.90;;;;;;5069017;28;20163;-83
2021/07/21 01:02:10;;;;;;;20.90;13.77;;;19.10;99.90;;;;;;5067174;28;20177;-83
2021/07/21 01:04:37;;;;;;;17.58;13.75;;;19.10;99.90;;;;;;5094785;28;20163;-82
2021/07/21 01:07:07;;;;;;;19.30;14.73;;;19.10;99.90;;;;;;5093640;28;20220;-82
2021/07/21 01:09:36;;;;;;;20.48;14.15;;;19.10;99.90;;;;;;5092855;28;20189;-83
2021/07/21 01:12:18;;;;;;;20.02;14.05;;;19.10;99.90;;;;;;5075473;28;20166;-83
2021/07/21 01:15:12;;;;;;;19.77;13.90;;;19.10;99.90;;;;;;5067329;28;20188;-83
2021/07/21 01:17:46;;;;;;;19.10;13.85;;;19.00;99.90;;;;;;5065064;28;20181;-83
2021/07/21 01:20:26;;;;;;;18.23;12.85;;;18.90;99.90;;;;;;5087431;28;20169;-82
2021/07/21 01:23:11;;;;;;;20.75;13.90;;;18.90;99.90;;;;;;5065301;28;20616;-81
2021/07/21 01:25:48;;;;;;;18.30;12.75;;;18.80;99.90;;;;;;5074397;28;20147;-83
2021/07/21 01:28:14;;;;;;;24.52;13.75;;;18.80;99.90;;;;;;5084073;28;20169;-82
2021/07/21 01:30:41;;;;;;;19.42;14.02;;;18.80;99.90;;;;;;5092479;28;20194;-82
2021/07/21 01:33:13;;;;;;;32.47;14.40;;;18.80;99.90;;;;;;5038288;28;20183;-83
2021/07/21 01:36:19;;;;;;;23.90;14.10;;;18.80;99.90;;;;;;5055676;28;20167;-83
2021/07/21 01:39:03;;;;;;;18.30;13.65;;;18.70;99.90;;;;;;5080823;28;20213;-83
2021/07/21 01:41:33;;;;;;;27.00;14.52;;;18.70;99.90;;;;;;5093599;28;20611;-82
2021/07/21 01:44:03;;;;;;;16.65;13.95;;;18.60;99.90;;;;;;5074109;28;20174;-82
2021/07/21 01:46:30;;;;;;;20.88;13.63;;;18.60;99.90;;;;;;5093184;28;20619;-81
2021/07/21 01:48:59;;;;;;;19.42;14.30;;;18.50;99.90;;;;;;5089593;28;20202;-82
2021/07/21 01:51:27;;;;;;;22.95;14.50;;;18.50;99.90;;;;;;5087433;28;20201;-83
2021/07/21 01:53:55;;;;;;;19.35;13.88;;;18.30;99.90;;;;;;5064716;28;20517;-82
2021/07/21 01:56:25;;;;;;;20.98;14.10;;;18.40;99.90;;;;;;5080112;28;20218;-83
2021/07/21 01:58:55;;;;;;;20.50;14.45;;;18.40;99.90;;;;;;5058147;28;20301;-82
2021/07/21 02:01:27;;;;;;;19.90;13.95;;;18.30;99.90;;;;;;5074276;28;20519;-83
2021/07/21 02:03:56;;;;;;;25.25;13.00;;;18.20;99.90;;;;;;5075768;28;20158;-82
2021/07/21 02:06:22;;;;;;;25.65;13.18;;;18.10;99.90;;;;;;5075359;28;20178;-82
2021/07/21 02:08:48;;;;;;;21.70;14.30;;;18.10;99.90;;;;;;5088096;28;20198;-81
2021/07/21 02:11:14;;;;;;;17.40;13.15;;;18.10;99.90;;;;;;5082888;28;20179;-82
2021/07/21 02:13:41;;;;;;;20.92;13.88;;;18.10;99.90;;;;;;5083745;28;20665;-81
2021/07/21 02:16:07;;;;;;;21.75;13.85;;;18.10;99.90;;;;;;5059806;28;20562;-82
2021/07/21 02:18:34;;;;;;;16.67;13.00;;;18.10;99.90;;;;;;5060592;28;20611;-83
2021/07/21 02:21:07;;;;;;;19.50;13.00;;;18.10;99.90;;;;;;5058725;28;20260;-82
2021/07/21 02:23:33;;;;;;;18.65;14.27;;;18.10;99.90;;;;;;5078522;28;20158;-83
2021/07/21 02:26:01;;;;;;;20.17;13.02;;;18.00;99.90;;;;;;5071279;28;20257;-82
2021/07/21 02:28:29;;;;;;;18.30;13.98;;;17.80;99.90;;;;;;5087603;28;20167;-82
2021/07/21 02:30:58;;;;;;;25.48;14.70;;;17.80;99.90;;;;;;5056649;28;20174;-82
2021/07/21 02:33:41;;;;;;;20.88;14.65;;;17.70;99.90;;;;;;5073685;28;20621;-82
2021/07/21 02:36:07;;;;;;;24.98;14.80;;;17.80;99.90;;;;;;5073303;28;20197;-82
2021/07/21 02:38:32;;;;;;;19.40;14.85;;;17.80;99.90;;;;;;5057957;28;20170;-82
2021/07/21 02:40:58;;;;;;;18.70;13.45;;;17.70;99.90;;;;;;5075345;28;20177;-82
2021/07/21 02:43:24;;;;;;;27.27;14.57;;;17.80;99.90;;;;;;5054097;28;20254;-82
2021/07/21 02:45:49;;;;;;;21.25;13.73;;;17.70;99.90;;;;;;5080832;28;20265;-82
2021/07/21 02:48:15;;;;;;;25.98;14.25;;;17.60;99.90;;;;;;5055649;28;20574;-82
2021/07/21 02:50:43;;;;;;;23.40;13.90;;;17.60;99.90;;;;;;5055595;28;20705;-82
2021/07/21 02:53:19;;;;;;;20.50;14.40;;;17.60;99.90;;;;;;5072225;28;20624;-82
2021/07/21 02:55:50;;;;;;;21.17;12.65;;;17.60;99.90;;;;;;5073254;28;20603;-82
2021/07/21 02:58:45;;;;;;;21.60;13.90;;;17.50;99.90;;;;;;5073314;28;20197;-82
2021/07/21 03:01:13;;;;;;;15.50;12.13;;;17.40;99.90;;;;;;5080022;28;20192;-82
2021/07/21 03:03:42;;;;;;;18.50;13.43;;;17.20;99.90;;;;;;5093172;28;20162;-83
2021/07/21 03:06:09;;;;;;;21.70;15.43;;;17.20;99.90;;;;;;5092380;28;20163;-82
2021/07/21 03:08:36;;;;;;;19.80;12.82;;;17.20;99.90;;;;;;5070027;28;20167;-83
2021/07/21 03:11:04;;;;;;;20.20;13.55;;;17.20;99.90;;;;;;5087796;28;20182;-82
2021/07/21 03:13:47;;;;;;;25.75;15.35;;;17.20;99.90;;;;;;5055037;28;20522;-82
2021/07/21 03:16:14;;;;;;;21.02;14.13;;;17.30;99.90;;;;;;5077919;28;20173;-82
2021/07/21 03:18:44;;;;;;;22.25;15.15;;;17.30;99.90;;;;;;5055940;28;20173;-82
2021/07/21 03:21:11;;;;;;;20.83;14.85;;;17.30;99.90;;;;;;5067092;28;20220;-82
2021/07/21 03:23:37;;;;;;;27.05;13.98;;;17.30;99.90;;;;;;5074161;28;20571;-82
2021/07/21 03:26:07;;;;;;;21.10;14.07;;;17.30;99.90;;;;;;5091357;28;20168;-82
2021/07/21 03:28:33;;;;;;;21.98;13.75;;;17.20;99.90;;;;;;5075741;28;20159;-82
2021/07/21 03:31:00;;;;;;;17.45;13.32;;;17.20;99.90;;;;;;5077931;28;20560;-85
2021/07/21 03:33:28;;;;;;;18.48;13.43;;;17.20;99.90;;;;;;5093710;28;20175;-82
2021/07/21 03:35:59;;;;;;;27.23;14.02;;;17.30;99.90;;;;;;5061746;28;20166;-82
2021/07/21 03:38:26;;;;;;;23.73;15.27;;;17.20;99.90;;;;;;5092470;28;20266;-82
2021/07/21 03:40:52;;;;;;;22.05;14.20;;;17.30;99.90;;;;;;5076434;28;20166;-82
2021/07/21 03:43:19;;;;;;;21.17;14.43;;;17.20;99.90;;;;;;5077723;28;20171;-82
2021/07/21 03:45:45;;;;;;;22.42;13.45;;;17.20;99.90;;;;;;5061175;28;20174;-82
2021/07/21 03:48:11;;;;;;;20.33;12.73;;;17.10;99.90;;;;;;5076763;28;20162;-82
2021/07/21 03:50:37;;;;;;;22.55;13.85;;;17.10;99.90;;;;;;5087383;28;20511;-82
2021/07/21 03:53:03;;;;;;;29.15;13.70;;;17.10;99.90;;;;;;5094753;28;20200;-82
2021/07/21 03:55:31;;;;;;;19.52;14.30;;;17.00;99.90;;;;;;5095030;28;20194;-82
2021/07/21 03:57:57;;;;;;;19.38;13.65;;;17.10;99.90;;;;;;5094534;28;20178;-82
2021/07/21 04:00:24;;;;;;;19.88;14.32;;;17.20;99.90;;;;;;5095018;28;20618;-82
2021/07/21 04:02:55;;;;;;;22.52;14.35;;;17.20;99.90;;;;;;5043610;28;20167;-82
2021/07/21 04:05:23;;;;;;;19.70;14.38;;;17.10;99.90;;;;;;5057804;28;20191;-81
2021/07/21 04:07:49;;;;;;;25.15;13.93;;;17.10;99.90;;;;;;5058388;28;20189;-82
2021/07/21 04:10:16;;;;;;;17.50;13.23;;;17.10;99.90;;;;;;5058057;28;20607;-82
2021/07/21 04:12:47;;;;;;;23.15;14.80;;;17.10;99.90;;;;;;5066133;28;20609;-81
2021/07/21 04:15:13;;;;;;;24.63;14.73;;;17.10;99.90;;;;;;5090222;28;20159;-82
2021/07/21 04:17:40;;;;;;;25.52;15.27;;;17.10;99.90;;;;;;5094662;28;20181;-82
2021/07/21 04:20:07;;;;;;;19.63;13.05;;;17.10;99.90;;;;;;5093048;28;21293;-82
2021/07/21 04:22:34;;;;;;;22.02;13.05;;;17.20;99.90;;;;;;5071592;28;20515;-81
2021/07/21 04:25:00;;;;;;;23.67;13.05;;;17.10;99.90;;;;;;5077000;28;20316;-81
2021/07/21 04:27:27;;;;;;;21.73;13.18;;;17.10;99.90;;;;;;5057290;28;20177;-82
2021/07/21 04:29:53;;;;;;;25.27;14.13;;;17.20;99.90;;;;;;5060100;28;20198;-82
2021/07/21 04:32:23;;;;;;;22.52;14.50;;;17.30;99.90;;;;;;5060247;28;20182;-81
2021/07/21 04:34:50;;;;;;;17.77;13.43;;;17.30;99.90;;;;;;5056450;28;20523;-82
2021/07/21 04:37:17;;;;;;;22.67;13.85;;;17.30;99.90;;;;;;5056924;28;20167;-82
2021/07/21 04:39:44;;;;;;;18.27;13.90;;;17.30;99.90;;;;;;5077123;28;20166;-82
2021/07/21 04:42:11;;;;;;;18.75;13.13;;;17.40;99.90;;;;;;5065862;28;20265;-81
2021/07/21 04:44:38;;;;;;;16.00;12.90;;;17.50;99.90;;;;;;5068267;28;20623;-82
2021/07/21 04:47:05;;;;;;;18.17;12.73;;;17.50;99.90;;;;;;5074827;28;20249;-82
2021/07/21 04:49:32;;;;;;;16.88;12.88;;;17.60;99.90;;;;;;5040278;28;20190;-82
2021/07/21 04:52:03;;;;;;;17.05;13.48;;;17.70;99.90;;;;;;5074234;28;20174;-81
2021/07/21 04:54:29;;;;;;;15.68;12.13;;;18.00;99.90;;;;;;5057938;28;20501;-82
2021/07/21 04:56:55;;;;;;;13.25;10.48;;;18.50;99.90;;;;;;5057035;28;20166;-82
2021/07/21 04:59:21;;;;;;;17.02;11.60;;;19.10;99.90;;;;;;5093427;28;20217;-82
2021/07/21 05:01:48;;;;;;;14.52;11.60;;;19.60;99.90;;;;;;5063141;28;20209;-82
2021/07/21 05:04:14;;;;;;;13.63;11.25;;;20.10;99.90;;;;;;5040019;28;20632;-81
2021/07/21 05:06:40;;;;;;;17.50;10.60;;;20.60;99.90;;;;;;5056664;28;20232;-82
2021/07/21 05:09:07;;;;;;;12.90;9.52;;;20.90;99.90;;;;;;5057233;28;20203;-82
2021/07/21 05:11:32;;;;;;;15.63;11.05;;;21.30;99.90;;;;;;5056380;28;20174;-82
2021/07/21 05:13:58;;;;;;;15.95;11.27;;;21.60;99.90;;;;;;5059088;28;20511;-82
2021/07/21 05:16:24;;;;;;;12.32;10.48;;;21.90;99.90;;;;;;5039298;28;20254;-81
2021/07/21 05:18:50;;;;;;;11.65;10.40;;;22.30;99.90;;;;;;5066299;28;20493;-82
2021/07/21 05:21:16;;;;;;;41.40;11.45;;;22.70;99.90;;;;;;5073991;28;20189;-83
2021/07/21 05:23:41;;;;;;;10.65;9.68;;;23.20;99.90;;;;;;5061609;28;20194;-82
2021/07/21 05:26:07;;;;;;;10.88;8.75;;;23.70;99.90;;;;;;5056177;28;20163;-82
2021/07/21 05:28:35;;;;;;;8.55;7.82;;;24.30;99.90;;;;;;5079341;28;20202;-82
2021/07/21 05:31:01;;;;;;;14.68;8.52;;;24.90;99.90;;;;;;5074552;28;20173;-82
2021/07/21 05:33:27;;;;;;;9.63;8.15;;;25.40;99.90;;;;;;5061572;28;20166;-82
2021/07/21 05:35:53;;;;;;;10.50;9.32;;;25.90;99.90;;;;;;5076403;28;20174;-82
2021/07/21 05:38:19;;;;;;;9.82;8.90;;;26.40;99.90;;;;;;5089370;28;20215;-83
2021/07/21 05:40:44;;;;;;;12.35;9.00;;;26.90;99.90;;;;;;5073738;28;20158;-82
2021/07/21 05:43:10;;;;;;;13.25;8.88;;;27.50;99.90;;;;;;5055434;28;20167;-82
2021/07/21 05:45:36;;;;;;;9.20;8.30;;;28.00;99.90;;;;;;5063761;28;20178;-82
2021/07/21 05:48:01;;;;;;;8.60;7.80;;;28.30;99.90;;;;;;5082279;28;20169;-82
2021/07/21 05:50:27;;;;;;;14.15;8.98;;;28.40;99.90;;;;;;5054633;28;20186;-82
2021/07/21 05:52:53;;;;;;;10.05;9.15;;;28.60;99.90;;;;;;5074250;28;20182;-82
2021/07/21 05:55:19;;;;;;;14.23;8.32;;;29.20;99.90;;;;;;5065779;28;20175;-82
2021/07/21 05:57:46;;;;;;;10.93;9.82;;;29.70;99.90;;;;;;5076453;28;20263;-82
2021/07/21 06:00:13;;;;;;;15.10;11.00;;;30.10;99.90;;;;;;5091832;28;20229;-84
2021/07/21 06:02:39;;;;;;;16.92;10.52;;;30.70;99.90;;;;;;5054821;28;20174;-82
2021/07/21 06:05:06;;;;;;;11.23;9.95;;;31.40;99.90;;;;;;5040563;28;20178;-83
2021/07/21 06:07:32;;;;;;;16.88;11.63;;;32.00;99.90;;;;;;5087478;28;20180;-82
2021/07/21 06:09:58;;;;;;;11.50;9.68;;;32.70;99.90;;;;;;5073066;28;20193;-81
2021/07/21 06:12:23;;;;;;;11.00;9.90;;;33.40;99.90;;;;;;5075619;28;20165;-82
2021/07/21 06:14:49;;;;;;;12.00;10.70;;;33.90;99.90;;;;;;5035125;28;20180;-82
2021/07/21 06:17:15;;;;;;;11.85;10.38;;;34.40;99.90;;;;;;5072646;28;20698;-82
2021/07/21 06:19:40;;;;;;;19.80;10.52;;;34.80;99.90;;;;;;5074075;28;20252;-82
2021/07/21 06:22:06;;;;;;;11.50;10.40;;;35.10;99.90;;;;;;5055753;28;20242;-82
2021/07/21 06:24:34;;;;;;;10.70;9.70;;;35.40;99.80;;;;;;5084072;28;20174;-82
2021/07/21 06:27:00;;;;;;;12.98;10.65;;;35.80;98.80;;;;;;5085406;28;20215;-82
2021/07/21 06:29:26;;;;;;;15.23;10.98;;;36.40;97.50;;;;;;5080620;28;20218;-82
2021/07/21 06:31:52;;;;;;;11.13;10.02;;;36.80;96.50;;;;;;5055335;28;20228;-82
2021/07/21 06:34:18;;;;;;;16.70;10.85;;;37.10;93.00;;;;;;5089261;28;20177;-83
2021/07/21 06:36:44;;;;;;;10.35;9.27;;;37.20;93.80;;;;;;5093317;28;20176;-83
2021/07/21 06:39:10;;;;;;;11.30;8.55;;;37.60;93.30;;;;;;5078481;28;20705;-83
2021/07/21 06:41:36;;;;;;;12.10;9.48;;;37.50;91.60;;;;;;5078583;28;20619;-83
2021/07/21 06:44:02;;;;;;;11.68;10.15;;;38.10;90.70;;;;;;5081536;28;20170;-82
2021/07/21 06:46:30;;;;;;;13.90;9.15;;;38.60;89.50;;;;;;5089877;28;20177;-83
2021/07/21 06:48:56;;;;;;;10.07;8.80;;;38.50;87.10;;;;;;5064075;28;20285;-83
2021/07/21 06:51:22;;;;;;;10.25;8.18;;;39.00;88.00;;;;;;5075393;28;20162;-83
2021/07/21 06:53:48;;;;;;;9.43;8.30;;;39.70;83.20;;;;;;5077720;28;20547;-83
2021/07/21 06:56:14;;;;;;;11.45;9.00;;;40.30;80.30;;;;;;5055205;28;20523;-82
2021/07/21 06:58:40;;;;;;;9.45;8.48;;;40.90;76.20;;;;;;5074083;28;20186;-83
2021/07/21 07:01:06;;;;;;;8.43;7.72;;;41.30;75.80;;;;;;5080756;28;20202;-85
2021/07/21 07:03:32;;;;;;;9.13;8.23;;;41.40;74.50;;;;;;5096226;28;20554;-82
2021/07/21 07:05:59;;;;;;;8.32;7.55;;;41.30;72.20;;;;;;5068442;28;20178;-83
2021/07/21 07:08:24;;;;;;;7.63;6.97;;;41.20;71.40;;;;;;5081107;28;20522;-82
2021/07/21 07:10:50;;;;;;;8.65;7.43;;;41.30;71.70;;;;;;5096696;28;20193;-82
2021/07/21 07:13:16;;;;;;;7.93;7.32;;;41.70;69.20;;;;;;5073935;28;20173;-82
2021/07/21 07:15:42;;;;;;;8.40;6.22;;;41.40;69.60;;;;;;5082781;28;20563;-82
2021/07/21 07:18:14;;;;;;;8.57;5.68;;;41.20;68.80;;;;;;5076195;28;20219;-83
2021/07/21 07:20:44;;;;;;;11.43;5.20;;;41.10;68.50;;;;;;5058726;28;20170;-82
2021/07/21 07:23:09;;;;;;;6.00;5.50;;;40.80;68.00;;;;;;5086394;28;20177;-82
2021/07/21 07:25:36;;;;;;;6.80;5.78;;;40.50;67.30;;;;;;5094683;28;20165;-82
2021/07/21 07:28:02;;;;;;;6.07;5.57;;;40.60;68.60;;;;;;5077888;28;20197;-79
2021/07/21 07:30:27;;;;;;;5.90;5.32;;;41.10;66.10;;;;;;5095572;28;20610;-84
2021/07/21 07:32:53;;;;;;;6.53;5.57;;;41.20;66.60;;;;;;5089689;28;20185;-83
2021/07/21 07:35:18;;;;;;;5.90;5.25;;;41.70;65.80;;;;;;5059351;28;20166;-83
2021/07/21 07:37:44;;;;;;;6.13;5.28;;;41.50;65.40;;;;;;5080529;28;20623;-85
2021/07/21 07:40:10;;;;;;;6.45;5.85;;;41.50;64.40;;;;;;5095911;28;20189;-84
2021/07/21 07:42:36;;;;;;;7.18;5.30;;;41.60;66.00;;;;;;5078045;28;20173;-82
2021/07/21 07:45:03;;;;;;;6.30;4.72;;;42.40;65.00;;;;;;5068756;28;20169;-84
2021/07/21 07:47:29;;;;;;;8.70;5.47;;;43.10;64.60;;;;;;5058403;28;20257;-83
2021/07/21 07:49:55;;;;;;;5.35;4.85;;;42.90;61.60;;;;;;5075173;28;20749;-82
2021/07/21 07:52:21;;;;;;;6.15;4.43;;;42.80;61.80;;;;;;5083901;28;20202;-81
2021/07/21 07:54:47;;;;;;;7.38;5.05;;;42.60;60.60;;;;;;5083294;28;20228;-84
2021/07/21 07:57:12;;;;;;;5.18;4.68;;;42.90;61.70;;;;;;5059014;28;20639;-82
2021/07/21 07:59:38;;;;;;;7.30;5.28;;;43.00;60.20;;;;;;5075527;28;20157;-82
2021/07/21 08:02:04;;;;;;;10.10;5.25;;;43.10;59.60;;;;;;5076072;28;20576;-80
2021/07/21 08:04:30;;;;;;;5.28;4.55;;;43.00;58.40;;;;;;5058408;28;20713;-81
2021/07/21 08:06:56;;;;;;;7.60;5.30;;;42.80;60.90;;;;;;5073866;28;20193;-81
2021/07/21 08:09:21;;;;;;;5.55;5.07;;;43.10;59.20;;;;;;5096082;28;20201;-81
2021/07/21 08:11:52;;;;;;;5.88;5.38;;;43.40;60.20;;;;;;5060886;28;20529;-82
2021/07/21 08:14:18;;;;;;;5.82;5.32;;;42.30;58.40;;;;;;5094735;28;20142;-82
2021/07/21 08:16:45;;;;;;;5.70;5.20;;;41.50;60.50;;;;;;5071220;28;20166;-85
2021/07/21 08:19:10;;;;;;;5.43;4.93;;;42.10;59.90;;;;;;5057044;28;20200;-83
2021/07/21 08:21:36;;;;;;;5.30;4.90;;;42.40;59.40;;;;;;5075360;28;20580;-82
2021/07/21 08:24:03;;;;;;;6.93;5.15;;;42.60;60.00;;;;;;5079227;28;20162;-82
2021/07/21 08:26:29;;;;;;;7.35;4.72;;;42.70;59.50;;;;;;5076001;28;20174;-83
2021/07/21 08:28:54;;;;;;;5.30;4.72;;;43.60;59.50;;;;;;5057867;28;20469;-82
2021/07/21 08:31:21;;;;;;;7.97;5.15;;;44.10;58.10;;;;;;5075147;28;20172;-82
2021/07/21 08:33:47;;;;;;;5.43;4.85;;;44.40;57.00;;;;;;5057004;28;20492;-82
2021/07/21 08:36:13;;;;;;;8.15;5.82;;;44.20;57.60;;;;;;5069496;28;20252;-81
2021/07/21 08:38:39;;;;;;;7.25;5.75;;;44.60;56.40;;;;;;5077093;28;20260;-82
2021/07/21 08:41:05;;;;;;;6.20;5.60;;;44.40;57.80;;;;;;5076718;28;20520;-80
2021/07/21 08:43:31;;;;;;;5.90;5.28;;;44.90;56.30;;;;;;5076764;28;20161;-81
2021/07/21 08:45:58;;;;;;;7.05;5.47;;;44.90;56.50;;;;;;5072543;28;20629;-82
2021/07/21 08:48:24;;;;;;;6.63;6.05;;;44.40;56.80;;;;;;5074774;28;20166;-82
2021/07/21 08:50:50;;;;;;;6.18;5.50;;;44.30;55.70;;;;;;5088324;28;20202;-83
2021/07/21 08:53:18;;;;;;;6.72;6.07;;;44.70;56.50;;;;;;5076741;28;20181;-83
2021/07/21 08:55:44;;;;;;;6.75;6.05;;;44.60;56.20;;;;;;5070237;28;20158;-83
2021/07/21 08:58:13;;;;;;;6.63;6.03;;;45.40;55.40;;;;;;5076333;28;20192;-82
2021/07/21 09:00:38;;;;;;;6.53;5.93;;;44.70;55.00;;;;;;5076160;28;20260;-82
2021/07/21 09:03:04;;;;;;;8.98;6.30;;;43.40;56.40;;;;;;5057057;28;20254;-83
2021/07/21 09:05:30;;;;;;;10.85;6.20;;;44.70;56.50;;;;;;5056664;28;20185;-81
2021/07/21 09:07:56;;;;;;;7.25;6.65;;;45.30;55.50;;;;;;5060853;28;20169;-81
2021/07/21 09:10:22;;;;;;;6.43;5.82;;;45.40;54.70;;;;;;5075027;28;20198;-81
2021/07/21 09:12:50;;;;;;;6.03;5.53;;;45.70;55.30;;;;;;5074337;28;20174;-82
2021/07/21 09:15:18;;;;;;;6.18;5.60;;;46.50;55.80;;;;;;5039585;28;20193;-81
2021/07/21 09:18:08;;;;;;;7.55;5.32;;;47.40;54.60;;;;;;5057043;28;20177;-82
2021/07/21 09:20:57;;;;;;;7.97;6.20;;;45.90;54.10;;;;;;5080249;28;20162;-84
2021/07/21 09:23:57;;;;;;;11.18;6.00;;;46.50;54.80;;;;;;5072054;28;20178;-84
2021/07/21 09:26:23;;;;;;;6.57;5.97;;;46.30;53.50;;;;;;5032217;28;20235;-82
2021/07/21 09:28:52;;;;;;;6.35;5.90;;;45.70;54.30;;;;;;5069468;28;20170;-83
2021/07/21 09:31:37;;;;;;;6.78;5.97;;;46.50;53.70;;;;;;5049511;28;20249;-87
2021/07/21 09:34:16;;;;;;;7.00;6.38;;;46.60;53.40;;;;;;5074108;28;20146;-84
2021/07/21 09:36:42;;;;;;;7.20;6.50;;;47.40;52.40;;;;;;5073748;28;20161;-85
2021/07/21 09:39:10;;;;;;;6.57;5.93;;;47.20;51.40;;;;;;5064356;28;20181;-86
2021/07/21 09:41:36;;;;;;;8.43;5.70;;;46.30;53.80;;;;;;5094348;28;20157;-84
2021/07/21 09:44:04;;;;;;;7.00;6.40;;;45.90;52.70;;;;;;5059591;28;20173;-84
2021/07/21 09:46:38;;;;;;;6.50;6.00;;;44.50;54.00;;;;;;5076063;28;20519;-85
2021/07/21 09:49:03;;;;;;;6.65;6.15;;;44.80;54.60;;;;;;5093166;28;20538;-84
2021/07/21 09:51:35;;;;;;;10.07;6.43;;;44.80;54.50;;;;;;5079924;28;20178;-84
2021/07/21 09:54:14;;;;;;;6.90;5.63;;;45.80;53.30;;;;;;5055826;28;20170;-84
2021/07/21 09:56:41;;;;;;;7.82;6.00;;;46.00;54.20;;;;;;5073776;28;20170;-84
2021/07/21 09:59:28;;;;;;;8.55;6.13;;;45.50;54.10;;;;;;5094915;28;20211;-85
2021/07/21 10:01:54;;;;;;;8.48;6.50;;;45.00;53.70;;;;;;5118567;28;20187;-86
2021/07/21 10:04:38;;;;;;;7.15;6.55;;;44.70;54.90;;;;;;5118060;28;20169;-87
2021/07/21 10:07:41;;;;;;;8.38;6.63;;;43.40;54.90;;;;;;5118250;28;20165;-82
2021/07/21 10:10:21;;;;;;;6.97;6.30;;;43.80;55.10;;;;;;5092747;28;20232;-84
2021/07/21 10:13:08;;;;;;;8.80;6.82;;;45.10;54.70;;;;;;5064969;28;20196;-85
2021/07/21 10:15:34;;;;;;;9.95;7.57;;;45.80;53.30;;;;;;5079679;28;20138;-84
2021/07/21 10:18:11;;;;;;;7.25;6.65;;;45.90;53.60;;;;;;5079619;28;20262;-84
2021/07/21 10:20:39;;;;;;;11.13;6.75;;;45.70;52.50;;;;;;5055964;28;20170;-83
2021/07/21 10:23:06;;;;;;;7.78;6.97;;;43.40;53.40;;;;;;5055890;28;20218;-83
2021/07/21 10:25:32;;;;;;;7.70;6.90;;;42.30;56.50;;;;;;5055647;28;20596;-84
2021/07/21 10:27:58;;;;;;;8.30;7.40;;;42.10;57.90;;;;;;5071695;28;20230;-83
2021/07/21 10:30:30;;;;;;;7.30;6.70;;;43.20;56.70;;;;;;5075768;28;20193;-83
2021/07/21 10:32:57;;;;;;;7.07;6.55;;;44.70;54.80;;;;;;5093439;28;20157;-81
2021/07/21 10:35:24;;;;;;;7.88;7.15;;;45.50;54.40;;;;;;5093533;28;20166;-80
2021/07/21 10:37:52;;;;;;;7.80;7.07;;;44.00;52.90;;;;;;5097297;28;20169;-80
2021/07/21 10:40:22;;;;;;;8.85;7.25;;;40.30;57.80;;;;;;5097604;28;20169;-80
2021/07/21 10:42:51;;;;;;;9.00;8.20;;;38.90;57.70;;;;;;5097440;28;20298;-82
2021/07/21 10:45:22;;;;;;;8.60;7.95;;;38.50;59.70;;;;;;5097520;28;20173;-82
2021/07/21 10:48:09;;;;;;;9.32;8.35;;;41.30;57.30;;;;;;5062218;28;20170;-84
2021/07/21 10:50:57;;;;;;;10.27;7.53;;;41.50;57.10;;;;;;5095349;28;20186;-81
2021/07/21 10:59:23;;;;;;;7.05;6.55;;;42.80;55.70;;;;;;5084360;28;20556;-85
2021/07/21 11:01:49;;;;;;;7.13;6.60;;;44.10;54.80;;;;;;5088144;28;20620;-83
2021/07/21 11:04:16;;;;;;;8.32;6.93;;;42.10;55.50;;;;;;5092352;28;20161;-82
2021/07/21 11:06:47;;;;;;;7.38;6.70;;;41.90;57.80;;;;;;5093201;28;20169;-83
2021/07/21 11:09:20;;;;;;;10.27;6.85;;;42.30;56.80;;;;;;5095133;28;20227;-83
2021/07/21 11:11:50;;;;;;;6.35;5.82;;;43.10;56.60;;;;;;5075305;28;20174;-82
2021/07/21 11:14:25;;;;;;;6.95;6.50;;;44.50;56.40;;;;;;5093479;28;20611;-81
2021/07/21 11:16:55;;;;;;;11.60;7.32;;;42.60;56.00;;;;;;5069515;28;20593;-84
2021/07/21 11:19:34;;;;;;;7.32;6.72;;;40.70;57.00;;;;;;5055824;28;20173;-85
2021/07/21 11:22:02;;;;;;;8.05;7.28;;;39.50;59.20;;;;;;5092861;28;20227;-85
2021/07/21 11:24:30;;;;;;;7.55;6.95;;;39.20;59.50;;;;;;5075968;28;20260;-83
2021/07/21 11:26:56;;;;;;;7.95;7.32;;;40.20;58.90;;;;;;5091100;28;20205;-85
2021/07/21 11:29:24;;;;;;;8.90;7.97;;;36.40;62.20;;;;;;5042373;28;20623;-83
2021/07/21 11:31:50;;;;;;;8.25;7.55;;;36.50;63.60;;;;;;5092724;28;20291;-84
2021/07/21 11:34:22;;;;;;;9.00;8.10;;;38.40;62.60;;;;;;5095592;28;20678;-84
2021/07/21 11:36:49;;;;;;;12.07;7.93;;;39.00;60.00;;;;;;5074989;28;20681;-84
2021/07/21 11:39:44;;;;;;;8.77;8.07;;;40.60;60.00;;;;;;5073577;28;20177;-84
2021/07/21 11:45:03;;;;;;;7.53;6.82;;;44.00;56.20;;;;;;5092606;28;20161;-84
2021/07/21 11:47:30;;;;;;;7.30;6.60;;;42.10;56.40;;;;;;5092616;28;20166;-84
2021/07/21 11:49:56;;;;;;;6.78;6.30;;;41.90;59.30;;;;;;5059409;28;20205;-85
2021/07/21 11:52:23;;;;;;;7.22;6.35;;;41.20;58.40;;;;;;5071626;28;20181;-84
2021/07/21 11:54:50;;;;;;;7.15;6.55;;;41.20;59.80;;;;;;5074180;28;20207;-85
2021/07/21 11:57:16;;;;;;;7.57;6.63;;;41.10;58.90;;;;;;5073905;28;20166;-85
2021/07/21 11:59:43;;;;;;;6.78;6.18;;;40.20;59.10;;;;;;5059967;28;20192;-84
2021/07/21 12:02:19;;;;;;;7.47;6.88;;;40.70;58.70;;;;;;5042151;28;20537;-85
2021/07/21 12:04:50;;;;;;;7.30;6.65;;;40.20;59.00;;;;;;5094945;28;20201;-82
2021/07/21 12:07:18;;;;;;;7.20;6.63;;;39.50;61.10;;;;;;5073540;28;20260;-84
2021/07/21 12:09:45;;;;;;;7.18;6.47;;;38.90;61.50;;;;;;5070035;28;20205;-84
2021/07/21 12:12:13;;;;;;;6.80;6.30;;;38.60;62.10;;;;;;5059103;28;20181;-84
2021/07/21 12:14:40;;;;;;;7.45;6.65;;;38.60;64.80;;;;;;5058090;28;20193;-83
2021/07/21 12:17:09;;;;;;;8.18;7.22;;;38.40;62.50;;;;;;5074929;28;20211;-84
2021/07/21 12:19:37;;;;;;;9.50;7.75;;;38.80;63.00;;;;;;5093685;28;20499;-84
2021/07/21 12:22:07;;;;;;;8.68;6.60;;;39.50;60.10;;;;;;5074199;28;20530;-84
2021/07/21 12:24:47;;;;;;;8.85;6.90;;;39.10;63.00;;;;;;5094389;28;20202;-83
2021/07/21 12:27:19;;;;;;;7.03;6.38;;;39.00;60.90;;;;;;5071544;28;20170;-82
2021/07/21 12:29:44;;;;;;;7.25;6.55;;;37.60;63.70;;;;;;5090140;28;20230;-82
2021/07/21 12:32:18;;;;;;;8.27;6.60;;;35.00;68.90;;;;;;5072285;28;20182;-83
2021/07/21 12:34:52;;;;;;;11.02;6.88;;;33.00;70.40;;;;;;5075059;28;20166;-82
2021/07/21 12:37:20;;;;;;;7.93;7.30;;;32.40;72.90;;;;;;5076909;28;20170;-83
2021/07/21 12:39:47;;;;;;;7.65;6.95;;;31.90;73.80;;;;;;5076875;28;20181;-81
2021/07/21 12:42:19;;;;;;;8.55;6.88;;;31.50;75.20;;;;;;5076947;28;20192;-82
2021/07/21 12:44:48;;;;;;;7.68;6.95;;;30.70;75.40;;;;;;5076972;28;20169;-82
2021/07/21 12:47:24;;;;;;;6.85;6.22;;;30.20;77.20;;;;;;5069990;28;20169;-83
2021/07/21 12:49:56;;;;;;;7.88;6.97;;;30.10;77.60;;;;;;5076984;28;20202;-81
2021/07/21 12:52:34;;;;;;;11.40;7.15;;;29.90;78.80;;;;;;5056625;28;20515;-83
2021/07/21 12:55:01;;;;;;;7.45;6.82;;;29.80;80.10;;;;;;5074668;28;20185;-82